Time;durP1;ratioP1;P1;durP2;ratioP2;P2;SDS_P1;SDS_P2;PMS_P1;PMS_P2;Temp;Humidity;BMP_temperature;BMP_pressure;BME280_temperature;BME280_humidity;BME280_pressure;Samples;Min_cycle;Max_cycle;Signal;HPM_P1;HPM_P2
2022/12/06 00:00:45;;;;;;;9.63;8.30;;;4.90;99.90;;;;;;5107534;28;20084;-78
2022/12/06 00:03:11;;;;;;;9.60;8.68;;;4.90;99.90;;;;;;5107813;28;20027;-79
2022/12/06 00:05:37;;;;;;;14.50;9.48;;;4.90;99.90;;;;;;5107368;28;20466;-79
2022/12/06 00:08:03;;;;;;;9.50;8.25;;;4.90;99.90;;;;;;5055903;28;20028;-79
2022/12/06 00:10:29;;;;;;;11.70;7.85;;;4.90;99.90;;;;;;5069445;28;20032;-79
2022/12/06 00:12:55;;;;;;;9.18;8.25;;;4.90;99.90;;;;;;5087057;28;20033;-79
2022/12/06 00:15:21;;;;;;;8.73;7.90;;;4.90;99.90;;;;;;5084951;28;20032;-79
2022/12/06 00:17:47;;;;;;;8.50;7.60;;;4.90;99.90;;;;;;5089004;28;20107;-79
2022/12/06 00:20:13;;;;;;;9.50;7.30;;;4.90;99.90;;;;;;5107250;28;20028;-79
2022/12/06 00:22:44;;;;;;;9.45;8.38;;;4.90;99.90;;;;;;5089247;28;20589;-79
2022/12/06 00:25:10;;;;;;;9.55;7.68;;;4.90;99.90;;;;;;5107072;28;20101;-79
2022/12/06 00:27:35;;;;;;;13.38;8.25;;;4.90;99.90;;;;;;5072239;28;20036;-79
2022/12/06 00:30:02;;;;;;;8.70;7.85;;;5.00;99.90;;;;;;5088885;28;20028;-79
2022/12/06 00:32:28;;;;;;;8.15;7.45;;;5.00;99.90;;;;;;5088768;28;20076;-79
2022/12/06 00:34:54;;;;;;;11.05;8.60;;;4.90;99.90;;;;;;5068470;28;20029;-79
2022/12/06 00:37:20;;;;;;;9.50;6.85;;;4.90;99.90;;;;;;5052122;28;20131;-79
2022/12/06 00:39:47;;;;;;;9.07;8.18;;;4.90;99.90;;;;;;5071825;28;20036;-79
2022/12/06 00:42:13;;;;;;;8.82;7.70;;;4.90;99.90;;;;;;5088810;28;20028;-78
2022/12/06 00:44:39;;;;;;;8.77;7.88;;;4.90;99.90;;;;;;5088588;28;20039;-79
2022/12/06 00:47:05;;;;;;;16.85;7.57;;;4.90;99.90;;;;;;5071894;28;20097;-79
2022/12/06 00:49:31;;;;;;;8.93;8.15;;;4.90;99.90;;;;;;5106642;28;20032;-79
2022/12/06 00:51:57;;;;;;;10.02;7.50;;;4.90;99.90;;;;;;5072134;28;20039;-79
2022/12/06 00:54:23;;;;;;;9.00;8.07;;;4.90;99.90;;;;;;5088195;28;20032;-79
2022/12/06 00:56:49;;;;;;;10.75;8.93;;;4.90;99.90;;;;;;5106182;28;20016;-79
2022/12/06 00:59:15;;;;;;;10.18;8.55;;;4.90;99.90;;;;;;5071828;28;20710;-79
2022/12/06 01:01:41;;;;;;;7.95;6.68;;;4.90;99.90;;;;;;5088307;28;20039;-79
2022/12/06 01:04:08;;;;;;;8.38;7.47;;;4.90;99.90;;;;;;5067799;28;20021;-79
2022/12/06 01:06:35;;;;;;;10.27;9.25;;;5.00;99.90;;;;;;5086294;28;20032;-79
2022/12/06 01:09:06;;;;;;;10.27;8.75;;;5.00;99.90;;;;;;5085961;28;20054;-79
2022/12/06 01:11:35;;;;;;;9.68;7.38;;;4.90;99.90;;;;;;5084932;28;20028;-79
2022/12/06 01:14:01;;;;;;;9.93;6.97;;;5.00;99.90;;;;;;5072220;28;20046;-79
2022/12/06 01:16:30;;;;;;;8.43;7.47;;;5.00;99.90;;;;;;5071619;28;20028;-79
2022/12/06 01:18:58;;;;;;;9.40;6.75;;;5.00;99.90;;;;;;5088181;28;20040;-78
2022/12/06 01:21:25;;;;;;;6.90;6.30;;;5.00;99.90;;;;;;5106298;28;20106;-79
2022/12/06 01:23:54;;;;;;;8.23;6.63;;;5.00;99.90;;;;;;5071279;28;20088;-79
2022/12/06 01:26:26;;;;;;;7.57;6.97;;;5.00;99.90;;;;;;5106009;28;20025;-79
2022/12/06 01:28:52;;;;;;;9.38;8.48;;;5.00;99.90;;;;;;5105976;28;20012;-79
2022/12/06 01:31:18;;;;;;;7.35;6.60;;;5.00;99.90;;;;;;5087884;28;20019;-79
2022/12/06 01:33:45;;;;;;;12.48;8.43;;;5.00;99.90;;;;;;5087831;28;20024;-79
2022/12/06 01:36:24;;;;;;;7.70;7.03;;;5.10;99.90;;;;;;5087101;28;20028;-78
2022/12/06 01:38:55;;;;;;;8.77;7.25;;;5.00;99.90;;;;;;5105867;28;20107;-79
2022/12/06 01:41:22;;;;;;;5.72;5.20;;;5.00;99.90;;;;;;5087962;28;20078;-79
2022/12/06 01:43:49;;;;;;;6.65;5.57;;;5.00;99.90;;;;;;5087534;28;20092;-79
2022/12/06 01:46:40;;;;;;;8.32;7.22;;;5.00;99.90;;;;;;5105875;28;20036;-79
2022/12/06 01:49:12;;;;;;;7.18;6.47;;;5.00;99.90;;;;;;5087857;28;20032;-79
2022/12/06 01:52:03;;;;;;;8.32;7.13;;;5.00;99.90;;;;;;5106035;28;20074;-79
2022/12/06 01:54:29;;;;;;;7.63;6.78;;;5.00;99.90;;;;;;5067282;28;20490;-79
2022/12/06 01:56:56;;;;;;;8.48;6.50;;;5.10;99.90;;;;;;5085809;28;20037;-79
2022/12/06 01:59:24;;;;;;;9.48;6.40;;;5.00;99.90;;;;;;5067501;28;20059;-79
2022/12/06 02:01:50;;;;;;;8.02;6.10;;;5.00;99.90;;;;;;5085628;28;20025;-79
2022/12/06 02:04:18;;;;;;;8.27;6.00;;;5.00;99.90;;;;;;5072956;28;20020;-79
2022/12/06 02:06:44;;;;;;;13.82;6.63;;;5.00;99.90;;;;;;5087728;28;20475;-79
2022/12/06 02:09:12;;;;;;;6.15;5.55;;;5.00;99.90;;;;;;5088739;28;20050;-79
2022/12/06 02:11:38;;;;;;;6.25;5.65;;;5.00;99.90;;;;;;5109290;28;20024;-79
2022/12/06 02:14:12;;;;;;;7.20;5.60;;;5.10;99.90;;;;;;5091622;28;20486;-79
2022/12/06 02:17:04;;;;;;;5.25;4.78;;;5.00;99.90;;;;;;5109579;28;20085;-79
2022/12/06 02:19:44;;;;;;;6.53;5.70;;;5.10;99.90;;;;;;5090630;28;20044;-79
2022/12/06 02:22:31;;;;;;;6.75;6.00;;;5.10;99.90;;;;;;5091126;28;20371;-79
2022/12/06 02:25:24;;;;;;;10.30;7.07;;;5.10;99.90;;;;;;5091235;28;20057;-79
2022/12/06 02:28:18;;;;;;;8.00;7.28;;;5.10;99.90;;;;;;5109414;28;20091;-79
2022/12/06 02:31:08;;;;;;;7.65;6.95;;;5.10;99.90;;;;;;5074380;28;20055;-79
2022/12/06 02:33:47;;;;;;;6.68;5.97;;;5.10;99.90;;;;;;5091218;28;20032;-78
2022/12/06 02:36:19;;;;;;;7.65;6.50;;;5.10;99.90;;;;;;5109202;28;20084;-78
2022/12/06 02:38:52;;;;;;;14.38;6.93;;;5.10;99.90;;;;;;5091040;28;20032;-79
2022/12/06 02:41:24;;;;;;;9.45;5.60;;;5.10;99.90;;;;;;5109022;28;20028;-79
2022/12/06 02:43:58;;;;;;;7.25;5.03;;;5.10;99.90;;;;;;5109057;28;20028;-79
2022/12/06 02:46:28;;;;;;;7.28;6.60;;;5.10;99.90;;;;;;5109205;28;20098;-79
2022/12/06 02:48:55;;;;;;;;;;;5.10;99.90;;;;;;5091214;28;20101;-79
2022/12/06 02:51:21;;;;;;;10.70;8.20;;;5.10;99.90;;;;;;5108713;28;20388;-79
2022/12/06 02:53:51;;;;;;;13.63;8.95;;;5.20;99.90;;;;;;5090992;28;20031;-79
2022/12/06 02:56:18;;;;;;;8.73;8.00;;;5.10;99.90;;;;;;5108886;28;20028;-79
2022/12/06 02:58:43;;;;;;;9.30;8.25;;;5.10;99.90;;;;;;5108796;28;20021;-79
2022/12/06 03:01:16;;;;;;;8.25;7.47;;;5.10;99.90;;;;;;5108679;28;20050;-79
2022/12/06 03:04:07;;;;;;;9.73;7.40;;;5.10;99.90;;;;;;5074039;28;20032;-79
2022/12/06 03:07:03;;;;;;;8.88;6.15;;;5.10;99.90;;;;;;5090572;28;20040;-79
2022/12/06 03:09:49;;;;;;;7.05;6.05;;;5.10;99.90;;;;;;5090526;28;20054;-79
2022/12/06 03:13:11;;;;;;;8.50;7.47;;;5.10;99.90;;;;;;5089326;28;20051;-79
2022/12/06 03:15:43;;;;;;;10.65;7.85;;;5.10;99.90;;;;;;5006919;28;20034;-79
2022/12/06 03:18:30;;;;;;;8.20;7.38;;;5.10;99.90;;;;;;5106560;28;20047;-79
2022/12/06 03:21:25;;;;;;;7.65;6.93;;;5.20;99.90;;;;;;5107554;28;20032;-79
2022/12/06 03:23:52;;;;;;;8.48;7.70;;;5.10;99.90;;;;;;5081152;28;20051;-79
2022/12/06 03:26:24;;;;;;;11.02;8.02;;;5.20;99.90;;;;;;5108369;28;20032;-79
2022/12/06 03:28:54;;;;;;;7.43;6.72;;;5.20;99.90;;;;;;5108314;28;20024;-79
2022/12/06 03:31:25;;;;;;;16.45;8.00;;;5.20;99.90;;;;;;5089872;28;20031;-79
2022/12/06 03:34:15;;;;;;;6.72;6.05;;;5.20;99.90;;;;;;5108100;28;20028;-79
2022/12/06 03:36:44;;;;;;;9.88;7.90;;;5.20;99.90;;;;;;5089834;28;20056;-79
2022/12/06 03:39:14;;;;;;;7.93;7.10;;;5.20;99.90;;;;;;5108109;28;20032;-79
2022/12/06 03:41:50;;;;;;;7.97;7.30;;;5.20;99.90;;;;;;5089477;28;20035;-79
2022/12/06 03:44:16;;;;;;;9.05;7.80;;;5.20;99.90;;;;;;5089883;28;20115;-79
2022/12/06 03:46:47;;;;;;;10.93;9.20;;;5.20;99.90;;;;;;5089723;28;20032;-79
2022/12/06 03:49:27;;;;;;;14.68;8.60;;;5.20;99.90;;;;;;5089767;28;20020;-79
2022/12/06 03:51:53;;;;;;;9.23;8.43;;;5.20;99.90;;;;;;5089316;28;20024;-79
2022/12/06 03:54:19;;;;;;;8.85;8.05;;;5.20;99.90;;;;;;5089871;28;20107;-79
2022/12/06 03:56:45;;;;;;;8.98;8.18;;;5.20;99.90;;;;;;5107723;28;20040;-79
2022/12/06 03:59:11;;;;;;;9.63;8.68;;;5.20;99.90;;;;;;5107639;28;20078;-79
2022/12/06 04:01:37;;;;;;;7.47;6.60;;;5.20;99.90;;;;;;5089357;28;20454;-78
2022/12/06 04:04:05;;;;;;;8.50;6.95;;;5.20;99.90;;;;;;5089562;28;20417;-79
2022/12/06 04:06:31;;;;;;;8.38;7.57;;;5.20;99.90;;;;;;5089454;28;20057;-78
2022/12/06 04:09:51;;;;;;;8.35;7.55;;;5.20;99.90;;;;;;5107697;28;20040;-79
2022/12/06 04:11:42;;;;;;;8.25;6.65;;;5.20;99.90;;;;;;5106896;28;20061;-79
2022/12/06 04:14:08;;;;;;;8.98;8.18;;;5.20;99.90;;;;;;5107471;28;20024;-79
2022/12/06 04:19:18;;;;;;;10.13;7.25;;;5.20;99.90;;;;;;5088997;28;20036;-79
2022/12/06 04:24:29;;;;;;;7.78;6.40;;;5.20;99.90;;;;;;5091955;28;20040;-79
2022/12/06 04:40:41;;;;;;;8.68;7.00;;;5.10;99.90;;;;;;5091279;28;20028;-79
2022/12/06 04:45:55;;;;;;;6.53;5.93;;;5.10;99.90;;;;;;5088587;28;20040;-79
2022/12/06 04:48:21;;;;;;;9.30;7.45;;;5.10;99.90;;;;;;5106695;28;20409;-79
2022/12/06 04:50:49;;;;;;;8.05;7.32;;;5.10;99.90;;;;;;5088230;28;20008;-79
2022/12/06 04:53:15;;;;;;;10.55;6.85;;;5.10;99.90;;;;;;5088404;28;20032;-79
2022/12/06 04:55:46;;;;;;;7.78;7.07;;;5.10;99.90;;;;;;5106732;28;20043;-79
2022/12/06 04:58:12;;;;;;;6.80;6.30;;;5.10;99.90;;;;;;5088376;28;20028;-78
2022/12/06 05:00:42;;;;;;;8.60;7.80;;;5.10;99.90;;;;;;5071403;28;20517;-79
2022/12/06 05:03:09;;;;;;;9.18;6.10;;;5.20;99.90;;;;;;5106886;28;20041;-79
2022/12/06 05:05:36;;;;;;;8.48;7.68;;;5.10;99.90;;;;;;5106641;28;20036;-79
2022/12/06 05:08:02;;;;;;;9.25;7.13;;;5.10;99.90;;;;;;5088548;28;20028;-79
2022/12/06 05:10:28;;;;;;;7.95;7.15;;;5.10;99.90;;;;;;5106356;28;20020;-79
2022/12/06 05:12:53;;;;;;;9.10;8.13;;;5.10;99.90;;;;;;5071316;28;20043;-79
2022/12/06 05:15:19;;;;;;;9.07;7.88;;;5.10;99.90;;;;;;5106336;28;20024;-79
2022/12/06 05:17:45;;;;;;;7.57;6.72;;;5.10;99.90;;;;;;5071799;28;20050;-79
2022/12/06 05:20:13;;;;;;;9.70;6.35;;;5.10;99.90;;;;;;5087809;28;20055;-79
2022/12/06 05:22:39;;;;;;;7.85;7.15;;;5.20;99.90;;;;;;5087991;28;20054;-79
2022/12/06 05:25:05;;;;;;;7.40;6.72;;;5.10;99.90;;;;;;5071425;28;20093;-78
2022/12/06 05:27:31;;;;;;;9.27;7.78;;;5.10;99.90;;;;;;5088127;28;20145;-79
2022/12/06 05:29:57;;;;;;;11.45;6.70;;;5.10;99.90;;;;;;5087737;28;20024;-79
2022/12/06 05:32:23;;;;;;;9.27;8.38;;;5.20;99.90;;;;;;5088047;28;20028;-79
2022/12/06 05:34:50;;;;;;;9.18;8.25;;;5.20;99.90;;;;;;5087941;28;20059;-79
2022/12/06 05:37:22;;;;;;;9.80;8.80;;;5.20;99.90;;;;;;5087827;28;20585;-79
2022/12/06 05:39:48;;;;;;;8.35;7.55;;;5.10;99.90;;;;;;5106155;28;20039;-79
2022/12/06 05:42:13;;;;;;;8.57;7.80;;;5.10;99.90;;;;;;5087259;28;20031;-79
2022/12/06 05:44:40;;;;;;;7.78;6.85;;;5.20;99.90;;;;;;5073640;28;20046;-78
2022/12/06 05:47:06;;;;;;;9.98;8.43;;;5.20;99.90;;;;;;5109057;28;20264;-79
2022/12/06 05:49:32;;;;;;;8.77;7.13;;;5.20;99.90;;;;;;5110260;28;20538;-78
2022/12/06 05:51:57;;;;;;;11.38;8.57;;;5.20;99.90;;;;;;5091919;28;20020;-79
2022/12/06 05:54:23;;;;;;;15.85;9.60;;;5.20;99.90;;;;;;5109961;28;20477;-79
2022/12/06 05:56:49;;;;;;;11.10;9.10;;;5.10;99.90;;;;;;5091914;28;20028;-79
2022/12/06 05:59:16;;;;;;;9.45;7.50;;;5.10;99.90;;;;;;5091672;28;20035;-79
2022/12/06 06:01:42;;;;;;;15.65;9.82;;;5.10;99.90;;;;;;5109947;28;20028;-79
2022/12/06 06:04:08;;;;;;;7.97;7.25;;;5.10;99.90;;;;;;5091831;28;20040;-79
2022/12/06 06:06:34;;;;;;;10.48;7.53;;;5.10;99.90;;;;;;5092145;28;20108;-78
2022/12/06 06:09:00;;;;;;;8.70;7.85;;;5.10;99.90;;;;;;5091296;28;20024;-79
2022/12/06 06:11:26;;;;;;;9.05;6.63;;;5.10;99.90;;;;;;5109322;28;20030;-79
2022/12/06 06:13:53;;;;;;;10.65;8.38;;;5.10;99.90;;;;;;5091688;28;20516;-78
2022/12/06 06:16:20;;;;;;;11.18;10.07;;;5.10;99.90;;;;;;5091702;28;20027;-78
2022/12/06 06:18:46;;;;;;;16.63;11.50;;;5.20;99.90;;;;;;5109102;28;20034;-78
2022/12/06 06:21:12;;;;;;;8.95;7.97;;;5.10;99.90;;;;;;5091257;28;20024;-80
2022/12/06 06:23:38;;;;;;;11.10;10.02;;;5.10;99.90;;;;;;5108134;28;20039;-79
2022/12/06 06:26:11;;;;;;;10.05;9.02;;;5.10;99.90;;;;;;5073441;28;20036;-79
2022/12/06 06:28:37;;;;;;;10.60;9.43;;;5.10;99.90;;;;;;5107828;28;20691;-79
2022/12/06 06:31:07;;;;;;;10.98;8.10;;;5.10;99.90;;;;;;5082227;28;20020;-79
2022/12/06 06:33:33;;;;;;;17.85;9.77;;;5.10;99.90;;;;;;5068826;28;20030;-79
2022/12/06 06:35:59;;;;;;;13.48;10.85;;;5.10;99.90;;;;;;5057535;28;20024;-79
2022/12/06 06:38:25;;;;;;;11.10;8.15;;;5.10;99.90;;;;;;5073911;28;20538;-78
2022/12/06 06:40:50;;;;;;;14.68;11.30;;;5.10;99.90;;;;;;5109645;28;20028;-79
2022/12/06 06:43:19;;;;;;;17.90;11.73;;;5.10;99.90;;;;;;5091930;28;20032;-79
2022/12/06 06:46:00;;;;;;;9.82;8.30;;;5.10;99.90;;;;;;5083448;28;20112;-79
2022/12/06 06:48:27;;;;;;;11.27;10.18;;;5.00;99.90;;;;;;5107883;28;20035;-79
2022/12/06 06:50:53;;;;;;;11.05;8.82;;;5.10;99.90;;;;;;5073914;28;20021;-79
2022/12/06 06:53:20;;;;;;;17.80;9.68;;;5.00;99.90;;;;;;5076577;28;20024;-79
2022/12/06 06:55:49;;;;;;;14.00;10.30;;;5.00;99.90;;;;;;5056982;28;20024;-79
2022/12/06 06:58:15;;;;;;;15.77;9.70;;;5.00;99.90;;;;;;5091675;28;20032;-79
2022/12/06 07:00:42;;;;;;;18.38;10.35;;;5.10;99.90;;;;;;5056852;28;20090;-79
2022/12/06 07:03:15;;;;;;;11.65;10.18;;;5.10;99.90;;;;;;5071370;28;20047;-79
2022/12/06 07:05:42;;;;;;;17.88;10.82;;;5.10;99.90;;;;;;5072841;28;20058;-79
2022/12/06 07:08:09;;;;;;;10.18;8.27;;;5.10;99.90;;;;;;5072584;28;20044;-79
2022/12/06 07:10:36;;;;;;;12.60;7.95;;;5.10;99.90;;;;;;5110063;28;20020;-78
2022/12/06 07:13:02;;;;;;;12.50;8.80;;;5.00;99.90;;;;;;5090306;28;20032;-79
2022/12/06 07:15:28;;;;;;;10.57;8.05;;;5.00;99.90;;;;;;5073752;28;20107;-79
2022/12/06 07:17:54;;;;;;;13.32;8.18;;;5.10;99.90;;;;;;5076023;28;20032;-79
2022/12/06 07:20:20;;;;;;;12.75;8.63;;;5.00;99.90;;;;;;5094436;28;20040;-79
2022/12/06 07:22:46;;;;;;;15.18;9.20;;;5.00;99.90;;;;;;5081542;28;20035;-79
2022/12/06 07:25:12;;;;;;;13.35;9.10;;;5.00;99.90;;;;;;5068062;28;20077;-79
2022/12/06 07:27:38;;;;;;;12.07;9.32;;;5.00;99.90;;;;;;5068571;28;20032;-79
2022/12/06 07:30:05;;;;;;;11.23;8.52;;;5.10;99.90;;;;;;5091662;28;20031;-78
2022/12/06 07:32:35;;;;;;;15.02;12.23;;;5.10;99.90;;;;;;5103239;28;20031;-79
2022/12/06 07:35:03;;;;;;;10.57;8.75;;;5.00;99.90;;;;;;5063614;28;20048;-79
2022/12/06 07:37:30;;;;;;;14.35;9.23;;;5.00;99.90;;;;;;5068425;28;20074;-80
2022/12/06 07:39:56;;;;;;;13.38;8.63;;;5.00;99.90;;;;;;5072749;28;20123;-79
2022/12/06 07:45:18;;;;;;;16.55;13.27;;;4.90;99.90;;;;;;5089614;28;20398;-79
2022/12/06 07:47:43;;;;;;;13.65;10.15;;;4.90;99.90;;;;;;5107760;28;20028;-78
2022/12/06 07:50:15;;;;;;;13.32;10.20;;;5.00;99.90;;;;;;5073317;28;20028;-79
2022/12/06 07:52:41;;;;;;;12.52;8.80;;;4.90;99.90;;;;;;5069195;28;20020;-78
2022/12/06 07:55:09;;;;;;;12.65;10.00;;;4.90;99.90;;;;;;5087491;28;20087;-78
2022/12/06 07:57:35;;;;;;;14.18;9.20;;;5.00;99.90;;;;;;5098429;28;20078;-79
2022/12/06 08:00:01;;;;;;;12.88;10.23;;;5.00;99.90;;;;;;5079378;28;20114;-79
2022/12/06 08:02:37;;;;;;;11.70;9.80;;;5.00;99.90;;;;;;5073053;28;20043;-79
2022/12/06 08:05:04;;;;;;;11.15;8.98;;;5.00;99.90;;;;;;5089286;28;20103;-78
2022/12/06 08:07:31;;;;;;;11.38;9.63;;;5.00;99.90;;;;;;5087496;28;20074;-79
2022/12/06 08:09:56;;;;;;;16.75;9.80;;;5.00;99.90;;;;;;5072568;28;20022;-79
2022/12/06 08:12:22;;;;;;;11.40;8.80;;;5.00;99.90;;;;;;5106507;28;20111;-79
2022/12/06 08:14:48;;;;;;;16.63;9.93;;;5.00;99.90;;;;;;5107226;28;20019;-78
2022/12/06 08:17:15;;;;;;;12.07;10.75;;;5.10;99.90;;;;;;5089578;28;20552;-79
2022/12/06 08:19:40;;;;;;;21.05;9.90;;;5.10;99.90;;;;;;5105660;28;20440;-78
2022/12/06 08:22:06;;;;;;;14.80;10.65;;;5.10;99.90;;;;;;5087510;28;20032;-79
2022/12/06 08:24:32;;;;;;;11.75;10.38;;;5.20;99.90;;;;;;5088702;28;20032;-79
2022/12/06 08:26:59;;;;;;;16.88;12.50;;;5.30;99.90;;;;;;5054670;28;20044;-79
2022/12/06 08:29:25;;;;;;;12.60;10.38;;;5.30;99.90;;;;;;5105690;28;20024;-79
2022/12/06 08:31:51;;;;;;;11.98;8.30;;;5.40;99.90;;;;;;5088946;28;20453;-79
2022/12/06 08:34:17;;;;;;;14.13;9.50;;;5.40;99.90;;;;;;5088630;28;20031;-78
2022/12/06 08:36:43;;;;;;;10.02;8.95;;;5.40;99.90;;;;;;5088748;28;20048;-78
2022/12/06 08:39:10;;;;;;;10.95;9.55;;;5.50;99.90;;;;;;5088695;28;20034;-79
2022/12/06 08:41:54;;;;;;;11.35;10.35;;;5.50;99.90;;;;;;5088295;28;20074;-79
2022/12/06 08:44:25;;;;;;;11.85;9.50;;;5.60;99.90;;;;;;5106404;28;20028;-79
2022/12/06 08:46:52;;;;;;;10.88;8.10;;;5.70;99.90;;;;;;5106249;28;20055;-80
2022/12/06 08:49:18;;;;;;;16.08;9.02;;;5.80;99.90;;;;;;5106021;28;20045;-79
2022/12/06 08:51:44;;;;;;;13.20;9.27;;;5.70;99.90;;;;;;5071610;28;20032;-79
2022/12/06 08:54:13;;;;;;;8.77;7.97;;;5.70;99.90;;;;;;5105997;28;20024;-79
2022/12/06 08:56:39;;;;;;;17.40;9.40;;;5.80;99.90;;;;;;5088338;28;20020;-79
2022/12/06 08:59:05;;;;;;;8.35;6.85;;;5.90;99.90;;;;;;5105945;28;20028;-79
2022/12/06 09:01:32;;;;;;;9.20;8.32;;;6.00;99.90;;;;;;5106266;28;20027;-79
2022/12/06 09:03:59;;;;;;;10.93;8.20;;;6.10;99.90;;;;;;5106689;28;20016;-79
2022/12/06 09:06:25;;;;;;;9.52;6.85;;;6.20;99.90;;;;;;5036998;28;20242;-80
2022/12/06 09:08:51;;;;;;;26.42;18.48;;;6.30;99.90;;;;;;5105678;28;20381;-79
2022/12/06 09:11:17;;;;;;;17.30;8.93;;;6.50;99.90;;;;;;5087552;28;20084;-79
2022/12/06 09:13:44;;;;;;;13.25;7.07;;;6.60;99.90;;;;;;5070956;28;20020;-79
2022/12/06 09:16:14;;;;;;;8.40;6.90;;;6.70;99.90;;;;;;5087709;28;20030;-79
2022/12/06 09:18:40;;;;;;;;;;;6.80;99.90;;;;;;5087652;28;20036;-79
2022/12/06 09:21:08;;;;;;;9.65;8.50;;;6.90;99.90;;;;;;5067768;28;19915;-79
2022/12/06 09:23:35;;;;;;;8.15;5.97;;;7.00;99.90;;;;;;5087203;28;20020;-79
2022/12/06 09:26:03;;;;;;;8.60;6.20;;;7.00;99.90;;;;;;5088380;28;20086;-79
2022/12/06 09:28:29;;;;;;;10.52;9.40;;;7.00;99.90;;;;;;5086397;28;20016;-79
2022/12/06 09:30:55;;;;;;;6.70;5.88;;;7.00;99.90;;;;;;5105611;28;20031;-79
2022/12/06 09:33:21;;;;;;;7.40;6.70;;;6.90;99.90;;;;;;5087648;28;20077;-79
2022/12/06 09:35:49;;;;;;;7.03;5.13;;;6.80;99.90;;;;;;5087330;28;20024;-79
2022/12/06 09:38:16;;;;;;;11.35;5.80;;;6.80;99.90;;;;;;5081713;28;20064;-79
2022/12/06 09:41:02;;;;;;;7.97;5.18;;;6.90;99.90;;;;;;5083359;28;20044;-79
2022/12/06 09:44:22;;;;;;;9.60;6.55;;;6.90;99.90;;;;;;5047717;28;20090;-79
2022/12/06 09:47:00;;;;;;;5.30;4.80;;;6.90;99.90;;;;;;5007175;28;20037;-79
2022/12/06 09:49:50;;;;;;;6.47;5.80;;;6.90;99.90;;;;;;5067416;28;20119;-79
2022/12/06 09:52:34;;;;;;;7.28;5.47;;;6.90;99.90;;;;;;5065545;28;20033;-79
2022/12/06 09:55:02;;;;;;;7.93;4.80;;;7.00;99.90;;;;;;5065671;28;20050;-79
2022/12/06 09:57:39;;;;;;;4.45;4.07;;;7.00;99.90;;;;;;5070903;28;20107;-79
2022/12/06 10:00:11;;;;;;;6.32;4.93;;;7.10;99.90;;;;;;5081587;28;20072;-79
2022/12/06 10:03:10;;;;;;;10.05;6.00;;;7.20;99.90;;;;;;5085265;28;20032;-79
2022/12/06 10:05:42;;;;;;;6.03;5.40;;;7.30;99.90;;;;;;5084494;28;20028;-80
2022/12/06 10:08:37;;;;;;;7.38;5.70;;;7.50;99.90;;;;;;5063680;28;20058;-79
2022/12/06 10:11:34;;;;;;;4.40;4.00;;;7.60;99.90;;;;;;5055510;28;20056;-79
2022/12/06 10:14:06;;;;;;;6.15;4.68;;;8.50;99.90;;;;;;5081306;28;20039;-79
2022/12/06 10:17:00;;;;;;;4.50;3.55;;;10.60;99.90;;;;;;5085271;28;20118;-79
2022/12/06 10:19:47;;;;;;;3.65;3.35;;;11.10;99.90;;;;;;5083768;28;20025;-79
2022/12/06 10:22:37;;;;;;;3.83;3.45;;;13.30;99.90;;;;;;5084347;28;20029;-79
2022/12/06 10:25:09;;;;;;;5.05;3.53;;;13.20;99.90;;;;;;5083331;28;20052;-79
2022/12/06 10:27:53;;;;;;;5.28;3.85;;;12.30;99.90;;;;;;5081160;28;20556;-79
2022/12/06 10:30:19;;;;;;;3.33;2.97;;;11.60;99.90;;;;;;5082828;28;20035;-79
2022/12/06 10:33:15;;;;;;;5.50;4.20;;;11.30;99.90;;;;;;5086956;28;20438;-79
2022/12/06 10:35:49;;;;;;;3.50;3.22;;;10.80;99.90;;;;;;5086660;28;20021;-79
2022/12/06 10:38:21;;;;;;;3.22;2.47;;;10.90;99.90;;;;;;5087002;28;20048;-79
2022/12/06 10:41:15;;;;;;;7.05;3.75;;;11.10;99.90;;;;;;5085816;28;20029;-79
2022/12/06 10:43:46;;;;;;;4.30;3.83;;;11.30;99.90;;;;;;5069378;28;20054;-79
2022/12/06 10:49:27;;;;;;;4.80;3.70;;;11.60;99.90;;;;;;5084093;28;20033;-79
2022/12/06 10:52:08;;;;;;;4.53;2.80;;;13.10;99.90;;;;;;5079508;28;20020;-79
2022/12/06 10:54:42;;;;;;;10.77;4.03;;;12.30;99.90;;;;;;5087870;28;20028;-79
2022/12/06 10:57:20;;;;;;;4.85;3.25;;;11.70;99.90;;;;;;5086561;28;20028;-79
2022/12/06 10:59:57;;;;;;;3.38;3.08;;;12.70;99.90;;;;;;5087566;28;20059;-79
2022/12/06 11:02:47;;;;;;;3.83;2.63;;;13.00;99.90;;;;;;5088789;28;20035;-79
2022/12/06 11:05:35;;;;;;;5.45;2.95;;;12.10;99.90;;;;;;5085719;28;20028;-79
2022/12/06 11:08:15;;;;;;;3.22;2.92;;;11.90;99.90;;;;;;5086466;28;20063;-78
2022/12/06 11:10:44;;;;;;;4.68;3.40;;;11.30;99.90;;;;;;5067005;28;20028;-78
2022/12/06 11:13:36;;;;;;;9.65;3.25;;;11.70;99.90;;;;;;5071858;28;20008;-79
2022/12/06 11:16:14;;;;;;;7.55;4.25;;;12.10;99.90;;;;;;5079651;28;20020;-78
2022/12/06 11:18:41;;;;;;;3.00;2.70;;;12.60;99.90;;;;;;5085180;28;20035;-77
2022/12/06 11:21:19;;;;;;;3.22;2.90;;;12.90;99.90;;;;;;5060547;28;20364;-77
2022/12/06 11:23:56;;;;;;;7.22;4.47;;;13.10;99.90;;;;;;5080690;28;20097;-77
2022/12/06 11:26:37;;;;;;;10.50;2.58;;;13.50;99.90;;;;;;5066482;28;20036;-77
2022/12/06 11:29:08;;;;;;;2.75;2.53;;;13.00;99.90;;;;;;5066773;28;20124;-78
2022/12/06 11:31:45;;;;;;;3.95;3.08;;;12.80;99.90;;;;;;5072476;28;20016;-77
2022/12/06 11:34:30;;;;;;;6.10;2.38;;;12.90;99.90;;;;;;5066384;28;20028;-77
2022/12/06 11:36:58;;;;;;;3.95;2.08;;;13.20;99.90;;;;;;5066012;28;20056;-77
2022/12/06 11:39:24;;;;;;;2.35;2.17;;;12.70;99.90;;;;;;5056702;28;20028;-77
2022/12/06 11:41:54;;;;;;;2.67;2.42;;;12.60;99.90;;;;;;5074109;28;20061;-77
2022/12/06 11:44:24;;;;;;;8.93;8.07;;;12.70;99.90;;;;;;5077040;28;20040;-77
2022/12/06 11:47:00;;;;;;;3.05;2.28;;;12.40;99.90;;;;;;5093452;28;20062;-77
2022/12/06 11:49:35;;;;;;;3.33;3.13;;;12.20;99.90;;;;;;5082977;28;20066;-78
2022/12/06 11:52:24;;;;;;;2.60;2.40;;;12.10;99.90;;;;;;5077193;28;20029;-77
2022/12/06 11:55:04;;;;;;;1.90;1.77;;;12.40;99.90;;;;;;5085544;28;20099;-77
2022/12/06 11:58:14;;;;;;;3.25;1.70;;;12.00;99.90;;;;;;5106564;28;20062;-78
2022/12/06 12:01:02;;;;;;;2.50;1.73;;;11.60;99.90;;;;;;5037499;28;20033;-78
2022/12/06 12:03:33;;;;;;;1.98;1.88;;;11.60;99.90;;;;;;5085743;28;20048;-78
2022/12/06 12:06:25;;;;;;;4.03;2.70;;;11.50;99.90;;;;;;5086036;28;20033;-78
2022/12/06 12:09:04;;;;;;;2.30;2.10;;;11.10;99.90;;;;;;5083517;28;20025;-78
2022/12/06 12:11:36;;;;;;;3.78;2.75;;;10.80;99.90;;;;;;5079292;28;20099;-78
2022/12/06 12:14:26;;;;;;;2.97;1.70;;;10.70;99.90;;;;;;5085044;28;20048;-78
2022/12/06 12:16:58;;;;;;;1.80;1.70;;;10.40;99.90;;;;;;5085921;28;20084;-77
2022/12/06 12:19:49;;;;;;;2.45;2.25;;;10.40;99.90;;;;;;5086673;28;20029;-78
2022/12/06 12:22:35;;;;;;;4.22;2.58;;;10.40;99.90;;;;;;5083375;28;20047;-77
2022/12/06 12:25:19;;;;;;;4.40;2.90;;;10.60;99.90;;;;;;5085611;28;20024;-78
2022/12/06 12:27:59;;;;;;;3.42;2.50;;;10.60;99.90;;;;;;5085313;28;20024;-78
2022/12/06 12:30:24;;;;;;;;;;;10.80;99.90;;;;;;5087504;28;20093;-77
2022/12/06 12:33:07;;;;;;;2.67;2.53;;;10.90;99.90;;;;;;5086596;28;19981;-78
2022/12/06 12:35:41;;;;;;;6.03;2.13;;;10.40;99.90;;;;;;5084316;28;20486;-77
2022/12/06 12:38:09;;;;;;;3.05;2.58;;;9.70;99.90;;;;;;5103017;28;20051;-77
2022/12/06 12:40:42;;;;;;;1.83;1.67;;;9.20;99.90;;;;;;5106417;28;20047;-78
2022/12/06 12:43:10;;;;;;;3.58;2.92;;;9.00;99.90;;;;;;5069556;28;20028;-78
2022/12/06 12:46:00;;;;;;;3.00;2.70;;;9.40;99.90;;;;;;5071786;28;20035;-77
2022/12/06 12:48:27;;;;;;;3.92;3.28;;;9.90;99.90;;;;;;5087071;28;20158;-77
2022/12/06 12:50:55;;;;;;;4.80;2.13;;;10.20;99.90;;;;;;5106383;28;20022;-78
2022/12/06 12:53:43;;;;;;;7.07;2.47;;;10.40;99.90;;;;;;5106223;28;20024;-77
2022/12/06 12:56:15;;;;;;;2.13;1.65;;;10.30;99.90;;;;;;5106280;28;20077;-78
2022/12/06 12:58:41;;;;;;;3.33;1.48;;;10.30;99.90;;;;;;5073722;28;20020;-77
2022/12/06 13:01:23;;;;;;;2.42;2.17;;;10.40;99.90;;;;;;5088023;28;20087;-77
2022/12/06 13:04:01;;;;;;;2.90;2.70;;;10.20;99.90;;;;;;5071248;28;20032;-77
2022/12/06 13:06:40;;;;;;;4.18;2.22;;;9.90;99.90;;;;;;5068140;28;20040;-77
2022/12/06 13:09:12;;;;;;;3.83;2.78;;;9.70;99.90;;;;;;5084676;28;20098;-77
2022/12/06 13:11:43;;;;;;;3.17;2.13;;;9.50;99.90;;;;;;5066716;28;20023;-77
2022/12/06 13:14:18;;;;;;;5.80;1.75;;;9.30;99.90;;;;;;5068076;28;20099;-77
2022/12/06 13:16:46;;;;;;;3.78;2.22;;;9.20;99.90;;;;;;5100408;28;20024;-77
2022/12/06 13:19:17;;;;;;;3.42;2.35;;;9.20;99.90;;;;;;5087305;28;20091;-77
2022/12/06 13:21:44;;;;;;;2.53;2.40;;;9.00;99.90;;;;;;5071633;28;20061;-77
2022/12/06 13:24:09;;;;;;;3.78;2.13;;;8.90;99.90;;;;;;5066427;28;20391;-77
2022/12/06 13:26:50;;;;;;;4.32;2.05;;;8.80;99.90;;;;;;5102754;28;20064;-77
2022/12/06 13:29:36;;;;;;;2.22;1.67;;;8.60;99.90;;;;;;5087410;28;20028;-77
2022/12/06 13:32:15;;;;;;;2.42;2.28;;;8.30;99.90;;;;;;5106117;28;20020;-77
2022/12/06 13:34:54;;;;;;;2.17;1.67;;;8.20;99.90;;;;;;5087893;28;20020;-77
2022/12/06 13:37:50;;;;;;;1.60;1.50;;;8.00;99.90;;;;;;5105689;28;20081;-77
2022/12/06 13:40:31;;;;;;;2.05;1.85;;;7.80;99.90;;;;;;5071034;28;20092;-77
2022/12/06 13:43:02;;;;;;;3.17;2.55;;;7.80;99.90;;;;;;5087159;28;20032;-77
2022/12/06 13:45:41;;;;;;;1.42;1.23;;;7.60;99.90;;;;;;5105653;28;20383;-77